Training

Spin Video     https://www.youtube.com/watch?v=Vj8vdWBMePM&list=UULpWoZCi_X3hPwW6J_RsFEg     … [Read More...]

Weather

METAR FOR KCHA (Issued: Mon, March 30th 2015 6:53 AM UTC):
KCHA 300653Z AUTO 17008KT 10SM OVC048 13/01 A3008 RMK AO2 SLP184 T01280006 $

Accomplishments

Congratulations

Andrew Tucker soloed on  2-25-15 at 1A0 , we done. … [Read More...]

Hixson’s first Private Pilot of the year

Congratulation to Mr. Alan Kelley for  passing his Private Pilot Check Ride on 1-17-15. … [Read More...]

Dallas Bay Skypark - 1A0